createdAt,value
2019-01-29T00:01:09.834Z,2.90
2019-01-29T00:07:28.497Z,2.90
2019-01-29T00:10:51.017Z,2.90
2019-01-29T00:13:48.218Z,2.90
2019-01-29T00:16:35.571Z,2.90
2019-01-29T00:19:34.274Z,2.90
2019-01-29T00:22:33.571Z,3.00
2019-01-29T00:25:30.750Z,3.00
2019-01-29T00:28:20.383Z,3.00
2019-01-29T00:31:08.139Z,3.00
2019-01-29T00:34:10.112Z,3.00
2019-01-29T00:37:17.008Z,3.00
2019-01-29T00:40:20.613Z,3.00
2019-01-29T00:44:13.604Z,3.00
2019-01-29T00:47:01.429Z,3.00
2019-01-29T00:49:58.687Z,2.90
2019-01-29T00:56:23.352Z,2.90
2019-01-29T00:59:35.382Z,2.90
2019-01-29T01:06:16.644Z,2.90
2019-01-29T01:09:12.477Z,2.80
2019-01-29T01:12:25.301Z,2.80
2019-01-29T01:15:44.814Z,2.70
2019-01-29T01:18:35.576Z,2.60
2019-01-29T01:21:32.693Z,2.60
2019-01-29T01:24:15.322Z,2.50
2019-01-29T01:26:51.574Z,2.40
2019-01-29T01:29:36.178Z,2.00
2019-01-29T01:32:40.294Z,2.40
2019-01-29T01:35:39.453Z,3.00
2019-01-29T01:38:28.677Z,2.30
2019-01-29T01:41:30.165Z,2.40
2019-01-29T01:44:13.147Z,2.40
2019-01-29T01:46:48.635Z,2.40
2019-01-29T01:49:44.029Z,2.40
2019-01-29T01:52:33.413Z,2.40
2019-01-29T01:55:16.537Z,2.40
2019-01-29T01:57:54.348Z,2.40
2019-01-29T02:00:33.515Z,2.40
2019-01-29T02:03:20.210Z,2.40
2019-01-29T02:05:57.641Z,2.40
2019-01-29T02:08:52.515Z,2.30
2019-01-29T02:11:33.699Z,2.40
2019-01-29T02:14:16.238Z,2.40
2019-01-29T02:16:53.362Z,2.40
2019-01-29T02:19:37.036Z,2.40
2019-01-29T02:22:19.973Z,2.30
2019-01-29T02:25:31.142Z,2.30
2019-01-29T02:28:13.205Z,2.40
2019-01-29T02:30:51.805Z,2.30
2019-01-29T02:33:28.664Z,2.30
2019-01-29T02:36:11.765Z,2.20
2019-01-29T02:39:05.539Z,2.20
2019-01-29T02:41:44.295Z,2.20
2019-01-29T02:44:34.469Z,2.20
2019-01-29T02:47:20.704Z,2.30
2019-01-29T02:49:55.711Z,2.40
2019-01-29T02:52:41.106Z,2.40
2019-01-29T02:55:22.632Z,2.40
2019-01-29T02:58:04.043Z,2.40
2019-01-29T03:00:44.664Z,2.40
2019-01-29T03:03:21.084Z,2.50
2019-01-29T03:05:57.246Z,2.50
2019-01-29T03:08:37.841Z,2.50
2019-01-29T03:11:31.136Z,2.50
2019-01-29T03:14:12.114Z,2.50
2019-01-29T03:16:44.554Z,2.40
2019-01-29T03:19:41.396Z,2.50
2019-01-29T03:22:24.272Z,2.40
2019-01-29T03:25:01.109Z,2.40
2019-01-29T03:27:34.448Z,2.40
2019-01-29T03:30:09.574Z,2.30
2019-01-29T03:32:55.041Z,2.30
2019-01-29T03:35:37.450Z,2.30
2019-01-29T03:38:18.281Z,2.30
2019-01-29T03:41:01.776Z,2.30
2019-01-29T03:43:35.299Z,2.30
2019-01-29T03:46:15.544Z,2.30
2019-01-29T03:48:57.524Z,2.30
2019-01-29T03:51:43.535Z,2.30
2019-01-29T03:54:27.950Z,2.30
2019-01-29T03:57:21.011Z,2.30
2019-01-29T03:59:54.105Z,2.40
2019-01-29T04:02:42.345Z,2.40
2019-01-29T04:05:18.471Z,2.30
2019-01-29T04:08:06.481Z,2.30
2019-01-29T04:10:39.951Z,2.30
2019-01-29T04:13:21.870Z,2.30
2019-01-29T04:16:03.224Z,2.20
2019-01-29T04:18:37.028Z,2.20
2019-01-29T04:21:12.950Z,2.10
2019-01-29T04:23:48.537Z,2.10
2019-01-29T04:26:22.689Z,2.00
2019-01-29T04:29:07.780Z,2.00
2019-01-29T04:31:42.892Z,2.00
2019-01-29T04:34:18.718Z,1.90
2019-01-29T04:36:55.449Z,1.90
2019-01-29T04:39:39.494Z,1.90
2019-01-29T04:42:20.845Z,1.90
2019-01-29T04:44:59.955Z,1.90
2019-01-29T04:47:35.983Z,1.80
2019-01-29T04:50:21.822Z,1.80
2019-01-29T04:52:55.185Z,1.80
2019-01-29T04:55:34.781Z,1.70
2019-01-29T04:58:41.104Z,1.70
2019-01-29T05:01:18.474Z,1.60
2019-01-29T05:04:03.265Z,1.60
2019-01-29T05:06:59.907Z,1.60
2019-01-29T05:09:52.703Z,1.60
2019-01-29T05:12:48.625Z,1.50
2019-01-29T05:15:37.550Z,1.50
2019-01-29T05:19:01.241Z,1.50
2019-01-29T05:21:44.057Z,1.50
2019-01-29T05:24:40.703Z,1.50
2019-01-29T05:27:39.360Z,1.40
2019-01-29T05:30:37.948Z,1.40
2019-01-29T05:33:15.553Z,1.40
2019-01-29T05:36:06.215Z,1.40
2019-01-29T05:38:47.921Z,1.40
2019-01-29T05:42:09.893Z,1.40
2019-01-29T05:44:55.300Z,1.40
2019-01-29T05:48:27.566Z,1.40
2019-01-29T05:51:40.743Z,1.40
2019-01-29T05:54:38.928Z,1.40
2019-01-29T05:57:41.984Z,1.50
2019-01-29T06:00:40.667Z,1.50
2019-01-29T06:04:11.713Z,1.40
2019-01-29T06:07:20.634Z,1.40
2019-01-29T06:10:32.975Z,1.50
2019-01-29T06:13:52.181Z,1.40
2019-01-29T06:16:58.455Z,1.40
2019-01-29T06:20:23.166Z,1.50
2019-01-29T06:23:29.453Z,1.60
2019-01-29T06:26:25.595Z,1.60
2019-01-29T06:33:37.196Z,1.80
2019-01-29T06:37:05.456Z,1.80
2019-01-29T06:39:31.052Z,1.80
2019-01-29T06:53:29.247Z,2.30
2019-01-29T06:56:20.902Z,2.30
2019-01-29T06:59:47.471Z,1.40
2019-01-29T07:06:19.976Z,1.90
2019-01-29T07:09:25.482Z,2.00
2019-01-29T07:12:28.909Z,2.00
2019-01-29T07:15:51.433Z,2.00
2019-01-29T07:18:54.236Z,1.90
2019-01-29T07:21:48.192Z,2.00
2019-01-29T07:24:43.117Z,2.00
2019-01-29T07:27:54.885Z,2.00
2019-01-29T07:33:59.451Z,2.10
2019-01-29T07:37:56.886Z,2.20
2019-01-29T07:41:21.979Z,2.20
2019-01-29T07:44:21.877Z,2.30
2019-01-29T07:47:19.586Z,2.30
2019-01-29T07:54:13.454Z,2.40
2019-01-29T07:57:42.147Z,2.40
2019-01-29T08:00:37.147Z,2.50
2019-01-29T08:04:07.876Z,2.60
2019-01-29T08:07:33.436Z,2.60
2019-01-29T08:10:58.477Z,2.70
2019-01-29T08:14:43.370Z,2.80
2019-01-29T08:16:54.561Z,2.80
2019-01-29T08:19:49.052Z,3.00
2019-01-29T08:22:50.568Z,3.00
2019-01-29T08:26:16.156Z,3.10
2019-01-29T08:29:22.939Z,3.20
2019-01-29T08:32:25.321Z,3.30
2019-01-29T08:35:52.250Z,3.30
2019-01-29T08:38:54.896Z,3.40
2019-01-29T08:42:27.349Z,3.50
2019-01-29T08:45:39.706Z,3.50
2019-01-29T08:52:29.914Z,3.40
2019-01-29T08:55:16.508Z,3.40
2019-01-29T08:58:54.751Z,3.30
2019-01-29T09:02:12.538Z,3.30
2019-01-29T09:05:18.788Z,3.20
2019-01-29T09:09:03.520Z,3.40
2019-01-29T09:12:12.497Z,3.00
2019-01-29T09:15:39.995Z,3.50
2019-01-29T09:23:22.735Z,3.50
2019-01-29T09:26:23.839Z,3.90
2019-01-29T09:30:02.981Z,4.30
2019-01-29T09:33:20.459Z,4.40
2019-01-29T09:36:36.051Z,4.40
2019-01-29T09:39:33.580Z,4.30
2019-01-29T09:42:54.206Z,4.20
2019-01-29T09:46:16.584Z,4.10
2019-01-29T09:52:24.867Z,4.10
2019-01-29T09:56:13.958Z,4.30
2019-01-29T09:59:09.910Z,4.50
2019-01-29T10:02:12.086Z,4.80
2019-01-29T10:05:13.846Z,4.80
2019-01-29T10:08:25.359Z,4.80
2019-01-29T10:12:04.625Z,5.20
2019-01-29T10:15:42.216Z,5.30
2019-01-29T10:19:12.920Z,5.30
2019-01-29T10:22:46.399Z,5.30
2019-01-29T10:25:55.662Z,5.40
2019-01-29T10:29:18.582Z,5.30
2019-01-29T10:32:38.353Z,5.40
2019-01-29T10:35:33.549Z,5.40
2019-01-29T10:38:47.137Z,5.40
2019-01-29T10:42:12.427Z,5.20
2019-01-29T10:45:41.594Z,5.20
2019-01-29T10:52:13.808Z,5.70
2019-01-29T10:55:27.300Z,5.70
2019-01-29T10:58:37.278Z,5.80
2019-01-29T11:02:07.190Z,5.80
2019-01-29T11:05:38.948Z,5.80
2019-01-29T11:09:07.063Z,5.60
2019-01-29T11:12:09.159Z,5.60
2019-01-29T11:15:47.459Z,5.60
2019-01-29T11:18:31.877Z,5.50
2019-01-29T11:21:46.075Z,5.50
2019-01-29T11:28:55.901Z,5.50
2019-01-29T11:36:11.141Z,6.50
2019-01-29T11:39:11.007Z,6.30
2019-01-29T11:42:05.437Z,6.60
2019-01-29T11:47:57.259Z,6.70
2019-01-29T11:50:49.418Z,6.40
2019-01-29T11:54:00.011Z,6.40
2019-01-29T12:01:33.136Z,6.60
2019-01-29T12:23:29.101Z,6.30
2019-01-29T12:26:43.430Z,6.10
2019-01-29T12:29:20.207Z,6.30
2019-01-29T12:29:45.585Z,6.00
2019-01-29T12:32:38.231Z,5.90
2019-01-29T12:35:59.698Z,5.80
2019-01-29T12:38:47.507Z,5.80
2019-01-29T12:42:06.044Z,5.60
2019-01-29T12:45:19.409Z,6.40
2019-01-29T12:52:20.660Z,6.30
2019-01-29T12:58:52.408Z,5.30
2019-01-29T13:02:04.362Z,5.70
2019-01-29T13:05:32.698Z,5.80
2019-01-29T13:08:36.117Z,5.80
2019-01-29T13:14:52.240Z,5.70
2019-01-29T13:21:22.878Z,5.60
2019-01-29T13:24:37.650Z,5.50
2019-01-29T13:28:00.508Z,5.80
2019-01-29T13:35:37.821Z,5.90
2019-01-29T13:39:38.160Z,5.40
2019-01-29T13:53:13.529Z,5.50
2019-01-29T13:56:40.037Z,5.50
2019-01-29T14:00:16.437Z,5.50
2019-01-29T14:03:09.817Z,5.40
2019-01-29T14:06:16.144Z,5.20
2019-01-29T14:09:18.309Z,5.20
2019-01-29T14:12:23.480Z,5.20
2019-01-29T14:15:43.352Z,5.30
2019-01-29T14:19:37.606Z,5.30
2019-01-29T14:22:44.651Z,5.30
2019-01-29T14:25:54.945Z,5.20
2019-01-29T14:29:06.383Z,5.20
2019-01-29T14:32:39.310Z,5.10
2019-01-29T14:35:41.377Z,5.10
2019-01-29T14:39:02.277Z,5.00
2019-01-29T14:42:56.677Z,5.10
2019-01-29T14:49:20.426Z,5.20
2019-01-29T14:55:36.240Z,5.00
2019-01-29T14:58:39.967Z,5.00
2019-01-29T15:01:55.656Z,5.00
2019-01-29T15:04:57.670Z,4.90
2019-01-29T15:08:40.475Z,4.90
2019-01-29T15:12:24.649Z,4.90
2019-01-29T15:16:31.204Z,4.80
2019-01-29T15:20:21.062Z,4.80
2019-01-29T15:27:28.136Z,4.70
2019-01-29T15:30:46.843Z,4.70
2019-01-29T15:34:08.670Z,4.70
2019-01-29T15:37:16.654Z,4.80
2019-01-29T15:41:11.353Z,4.70
2019-01-29T15:52:02.961Z,4.60
2019-01-29T15:55:31.937Z,4.50
2019-01-29T15:58:57.518Z,4.30
2019-01-29T16:35:39.613Z,3.60
2019-01-29T16:39:21.499Z,3.50
2019-01-29T16:50:34.239Z,3.40
2019-01-29T16:54:02.596Z,3.30
2019-01-29T17:00:59.888Z,3.30
2019-01-29T17:04:42.244Z,3.20
2019-01-29T17:07:42.437Z,3.20
2019-01-29T17:11:28.837Z,3.20
2019-01-29T17:14:51.126Z,3.20
2019-01-29T17:22:38.829Z,3.10
2019-01-29T17:25:52.514Z,3.10
2019-01-29T17:32:59.116Z,2.50
2019-01-29T17:39:51.921Z,3.00
2019-01-29T17:42:51.526Z,2.90
2019-01-29T17:46:55.032Z,2.90
2019-01-29T17:50:01.678Z,2.90
2019-01-29T17:53:44.196Z,2.90
2019-01-29T17:57:05.296Z,2.90
2019-01-29T18:00:55.222Z,2.80
2019-01-29T18:04:14.194Z,2.80
2019-01-29T18:21:13.395Z,2.60
2019-01-29T18:24:03.027Z,2.70
2019-01-29T18:24:19.240Z,2.60
2019-01-29T18:27:09.867Z,2.60
2019-01-29T18:37:56.791Z,2.50
2019-01-29T18:41:31.103Z,2.50
2019-01-29T18:48:36.875Z,2.50
2019-01-29T18:51:44.150Z,2.40
2019-01-29T18:54:58.153Z,2.40
2019-01-29T19:01:53.911Z,2.40
2019-01-29T19:04:49.675Z,2.40
2019-01-29T19:07:54.004Z,2.30
2019-01-29T19:11:04.755Z,2.20
2019-01-29T19:14:28.907Z,2.30
2019-01-29T19:17:45.126Z,2.20
2019-01-29T19:20:42.800Z,2.30
2019-01-29T19:24:16.341Z,2.20
2019-01-29T19:27:11.374Z,2.20
2019-01-29T19:31:37.626Z,2.30
2019-01-29T19:38:59.892Z,2.30
2019-01-29T19:42:30.166Z,2.30
2019-01-29T19:45:38.026Z,2.30
2019-01-29T19:48:59.312Z,2.20
2019-01-29T19:52:26.815Z,2.20
2019-01-29T20:03:48.421Z,2.20
2019-01-29T20:10:02.647Z,2.10
2019-01-29T20:16:50.067Z,2.10
2019-01-29T20:20:25.704Z,2.00
2019-01-29T20:28:23.676Z,2.10
2019-01-29T20:31:19.426Z,2.00
2019-01-29T20:34:28.799Z,2.00
2019-01-29T20:37:28.041Z,2.00
2019-01-29T20:40:46.758Z,2.10
2019-01-29T20:44:27.200Z,2.10
2019-01-29T20:48:08.213Z,2.10
2019-01-29T20:51:00.178Z,2.10
2019-01-29T20:54:21.577Z,2.20
2019-01-29T20:57:29.356Z,2.20
2019-01-29T21:01:15.849Z,2.70
2019-01-29T21:05:08.400Z,2.10
2019-01-29T21:08:31.329Z,2.10
2019-01-29T21:12:00.027Z,2.10
2019-01-29T21:15:18.148Z,2.10
2019-01-29T21:19:13.302Z,2.10
2019-01-29T21:22:11.892Z,2.10
2019-01-29T21:25:54.111Z,2.10
2019-01-29T21:36:37.803Z,2.10
2019-01-29T21:44:18.324Z,2.10
2019-01-29T21:47:27.945Z,2.10
2019-01-29T21:50:49.957Z,2.10
2019-01-29T21:54:03.958Z,2.20
2019-01-29T22:01:11.863Z,2.10
2019-01-29T22:04:43.311Z,2.10
2019-01-29T22:07:57.765Z,2.10
2019-01-29T22:10:44.260Z,2.20
2019-01-29T22:14:00.700Z,2.20
2019-01-29T22:17:47.562Z,2.20
2019-01-29T22:20:59.332Z,2.10
2019-01-29T22:23:59.580Z,2.00
2019-01-29T22:31:00.238Z,1.90
2019-01-29T22:34:06.213Z,1.80
2019-01-29T22:37:01.200Z,1.70
2019-01-29T22:40:24.437Z,1.80
2019-01-29T22:43:56.229Z,1.70
2019-01-29T22:47:29.768Z,1.70
2019-01-29T22:50:41.623Z,1.70
2019-01-29T22:53:59.896Z,1.70
2019-01-29T22:56:51.721Z,1.70
2019-01-29T23:00:08.185Z,1.70
2019-01-29T23:02:45.482Z,1.70
2019-01-29T23:05:50.432Z,1.70
2019-01-29T23:09:34.178Z,1.70
2019-01-29T23:12:51.349Z,1.70
2019-01-29T23:15:33.112Z,1.70
2019-01-29T23:18:37.678Z,1.70
2019-01-29T23:21:49.776Z,1.70
2019-01-29T23:24:48.179Z,1.80
2019-01-29T23:27:58.362Z,1.80
2019-01-29T23:31:08.139Z,1.70
2019-01-29T23:34:08.654Z,1.70
2019-01-29T23:37:12.971Z,1.70
2019-01-29T23:40:27.452Z,1.70
2019-01-29T23:43:30.371Z,1.60
2019-01-29T23:46:34.074Z,1.60
2019-01-29T23:49:38.445Z,1.50
2019-01-29T23:52:44.046Z,1.50
2019-01-29T23:55:54.420Z,1.50
2019-01-29T23:58:43.837Z,1.50
